sensor_id;sensor_type;location;lat;lon;timestamp;pressure;altitude;pressure_sealevel;temperature;humidity
25759;BME280;13604;52.496;13.456;2023-11-18T00:01:35;101713.22;;;3.95;100.00
25759;BME280;13604;52.496;13.456;2023-11-18T00:04:01;101719.91;;;3.93;100.00
25759;BME280;13604;52.496;13.456;2023-11-18T00:06:26;101703.22;;;3.79;100.00
25759;BME280;13604;52.496;13.456;2023-11-18T00:08:51;101733.44;;;4.01;100.00
25759;BME280;13604;52.496;13.456;2023-11-18T00:11:17;101719.13;;;3.94;100.00
25759;BME280;13604;52.496;13.456;2023-11-18T00:13:43;101735.75;;;3.98;100.00
25759;BME280;13604;52.496;13.456;2023-11-18T00:16:09;101715.91;;;3.86;100.00
25759;BME280;13604;52.496;13.456;2023-11-18T00:18:38;101712.53;;;3.87;100.00
25759;BME280;13604;52.496;13.456;2023-11-18T00:21:05;101712.91;;;3.82;100.00
25759;BME280;13604;52.496;13.456;2023-11-18T00:23:30;101735.50;;;3.95;100.00
25759;BME280;13604;52.496;13.456;2023-11-18T00:25:55;101741.69;;;3.97;100.00
25759;BME280;13604;52.496;13.456;2023-11-18T00:28:21;101741.97;;;4.00;100.00
25759;BME280;13604;52.496;13.456;2023-11-18T00:30:46;101747.13;;;4.00;100.00
25759;BME280;13604;52.496;13.456;2023-11-18T00:33:11;101745.56;;;3.92;100.00
25759;BME280;13604;52.496;13.456;2023-11-18T00:35:37;101735.72;;;3.87;100.00
25759;BME280;13604;52.496;13.456;2023-11-18T00:38:02;101759.31;;;3.92;100.00
25759;BME280;13604;52.496;13.456;2023-11-18T00:40:27;101748.75;;;3.89;100.00
25759;BME280;13604;52.496;13.456;2023-11-18T00:42:55;101730.78;;;3.70;100.00
25759;BME280;13604;52.496;13.456;2023-11-18T00:45:20;101771.47;;;3.93;100.00
25759;BME280;13604;52.496;13.456;2023-11-18T00:47:45;101761.34;;;3.86;100.00
25759;BME280;13604;52.496;13.456;2023-11-18T00:50:11;101758.50;;;3.83;100.00
25759;BME280;13604;52.496;13.456;2023-11-18T00:52:36;101757.72;;;3.74;100.00
25759;BME280;13604;52.496;13.456;2023-11-18T00:55:07;101782.63;;;3.83;100.00
25759;BME280;13604;52.496;13.456;2023-11-18T00:57:32;101784.00;;;3.80;100.00
25759;BME280;13604;52.496;13.456;2023-11-18T00:59:58;101779.78;;;3.80;100.00
25759;BME280;13604;52.496;13.456;2023-11-18T01:02:23;101774.34;;;3.77;100.00
25759;BME280;13604;52.496;13.456;2023-11-18T01:04:48;101782.69;;;3.75;100.00
25759;BME280;13604;52.496;13.456;2023-11-18T01:07:14;101793.53;;;3.81;100.00
25759;BME280;13604;52.496;13.456;2023-11-18T01:09:39;101800.84;;;3.76;100.00
25759;BME280;13604;52.496;13.456;2023-11-18T01:12:05;101791.06;;;3.72;100.00
25759;BME280;13604;52.496;13.456;2023-11-18T01:14:35;101797.63;;;3.68;100.00
25759;BME280;13604;52.496;13.456;2023-11-18T01:17:00;101807.47;;;3.83;100.00
25759;BME280;13604;52.496;13.456;2023-11-18T01:19:26;101813.13;;;3.79;100.00
25759;BME280;13604;52.496;13.456;2023-11-18T01:21:51;101791.97;;;3.73;100.00
25759;BME280;13604;52.496;13.456;2023-11-18T01:24:18;101801.41;;;3.82;100.00
25759;BME280;13604;52.496;13.456;2023-11-18T01:26:43;101815.63;;;3.87;100.00
25759;BME280;13604;52.496;13.456;2023-11-18T01:29:10;101814.91;;;3.80;100.00
25759;BME280;13604;52.496;13.456;2023-11-18T01:31:36;101816.75;;;3.81;100.00
25759;BME280;13604;52.496;13.456;2023-11-18T01:34:01;101818.31;;;3.89;100.00
25759;BME280;13604;52.496;13.456;2023-11-18T01:36:29;101819.44;;;3.82;100.00
25759;BME280;13604;52.496;13.456;2023-11-18T01:38:55;101796.84;;;3.69;100.00
25759;BME280;13604;52.496;13.456;2023-11-18T01:41:21;101779.78;;;3.61;100.00
25759;BME280;13604;52.496;13.456;2023-11-18T01:43:47;101830.94;;;3.86;100.00
25759;BME280;13604;52.496;13.456;2023-11-18T01:46:12;101824.34;;;3.79;100.00
25759;BME280;13604;52.496;13.456;2023-11-18T01:48:39;101826.44;;;3.83;100.00
25759;BME280;13604;52.496;13.456;2023-11-18T01:51:06;101822.72;;;3.90;100.00
25759;BME280;13604;52.496;13.456;2023-11-18T01:53:32;101828.63;;;3.89;100.00
25759;BME280;13604;52.496;13.456;2023-11-18T01:55:58;101821.66;;;3.88;100.00
25759;BME280;13604;52.496;13.456;2023-11-18T01:58:24;101818.97;;;3.86;100.00
25759;BME280;13604;52.496;13.456;2023-11-18T02:00:51;101825.13;;;3.78;100.00
25759;BME280;13604;52.496;13.456;2023-11-18T02:03:16;101836.75;;;3.83;100.00
25759;BME280;13604;52.496;13.456;2023-11-18T02:05:42;101841.75;;;3.82;100.00
25759;BME280;13604;52.496;13.456;2023-11-18T02:08:07;101814.31;;;3.63;100.00
25759;BME280;13604;52.496;13.456;2023-11-18T02:10:52;101845.09;;;3.81;100.00
25759;BME280;13604;52.496;13.456;2023-11-18T02:13:24;101843.91;;;3.77;100.00
25759;BME280;13604;52.496;13.456;2023-11-18T02:15:55;101845.09;;;3.81;100.00
25759;BME280;13604;52.496;13.456;2023-11-18T02:18:25;101844.31;;;3.82;100.00
25759;BME280;13604;52.496;13.456;2023-11-18T02:20:53;101827.47;;;3.66;100.00
25759;BME280;13604;52.496;13.456;2023-11-18T02:23:20;101836.28;;;3.68;100.00
25759;BME280;13604;52.496;13.456;2023-11-18T02:25:47;101860.06;;;3.85;100.00
25759;BME280;13604;52.496;13.456;2023-11-18T02:28:13;101855.66;;;3.84;100.00
25759;BME280;13604;52.496;13.456;2023-11-18T02:30:39;101854.91;;;3.85;100.00
25759;BME280;13604;52.496;13.456;2023-11-18T02:35:52;101851.69;;;3.87;100.00
25759;BME280;13604;52.496;13.456;2023-11-18T02:38:24;101850.66;;;3.85;100.00
25759;BME280;13604;52.496;13.456;2023-11-18T02:40:54;101828.13;;;3.64;100.00
25759;BME280;13604;52.496;13.456;2023-11-18T02:43:23;101828.44;;;3.58;100.00
25759;BME280;13604;52.496;13.456;2023-11-18T02:45:49;101847.31;;;3.67;100.00
25759;BME280;13604;52.496;13.456;2023-11-18T02:48:16;101841.47;;;3.60;100.00
25759;BME280;13604;52.496;13.456;2023-11-18T02:50:43;101863.22;;;3.72;100.00
25759;BME280;13604;52.496;13.456;2023-11-18T02:53:08;101848.59;;;3.62;100.00
25759;BME280;13604;52.496;13.456;2023-11-18T02:55:34;101852.34;;;3.66;100.00
25759;BME280;13604;52.496;13.456;2023-11-18T02:58:00;101854.16;;;3.67;100.00
25759;BME280;13604;52.496;13.456;2023-11-18T03:00:25;101846.56;;;3.68;100.00
25759;BME280;13604;52.496;13.456;2023-11-18T03:02:51;101853.31;;;3.77;100.00
25759;BME280;13604;52.496;13.456;2023-11-18T03:05:17;101848.50;;;3.71;100.00
25759;BME280;13604;52.496;13.456;2023-11-18T03:07:43;101851.59;;;3.67;100.00
25759;BME280;13604;52.496;13.456;2023-11-18T03:10:09;101857.97;;;3.81;100.00
25759;BME280;13604;52.496;13.456;2023-11-18T03:12:37;101859.94;;;3.83;100.00
25759;BME280;13604;52.496;13.456;2023-11-18T03:15:04;101855.25;;;3.79;100.00
25759;BME280;13604;52.496;13.456;2023-11-18T03:17:30;101856.44;;;3.83;100.00
25759;BME280;13604;52.496;13.456;2023-11-18T03:19:55;101841.94;;;3.75;100.00
25759;BME280;13604;52.496;13.456;2023-11-18T03:22:21;101856.28;;;3.81;100.00
25759;BME280;13604;52.496;13.456;2023-11-18T03:24:49;101864.81;;;3.80;100.00
25759;BME280;13604;52.496;13.456;2023-11-18T03:27:14;101843.56;;;3.64;100.00
25759;BME280;13604;52.496;13.456;2023-11-18T03:29:40;101839.53;;;3.57;100.00
25759;BME280;13604;52.496;13.456;2023-11-18T03:32:06;101863.22;;;3.72;100.00
25759;BME280;13604;52.496;13.456;2023-11-18T03:34:31;101851.16;;;3.62;100.00
25759;BME280;13604;52.496;13.456;2023-11-18T03:36:56;101867.09;;;3.77;100.00
25759;BME280;13604;52.496;13.456;2023-11-18T03:39:22;101861.66;;;3.74;100.00
25759;BME280;13604;52.496;13.456;2023-11-18T03:41:47;101839.81;;;3.60;100.00
25759;BME280;13604;52.496;13.456;2023-11-18T03:44:12;101866.22;;;3.77;100.00
25759;BME280;13604;52.496;13.456;2023-11-18T03:46:38;101855.19;;;3.69;100.00
25759;BME280;13604;52.496;13.456;2023-11-18T03:49:03;101858.09;;;3.63;100.00
25759;BME280;13604;52.496;13.456;2023-11-18T03:51:29;101870.38;;;3.66;100.00
25759;BME280;13604;52.496;13.456;2023-11-18T03:53:54;101888.31;;;3.75;100.00
25759;BME280;13604;52.496;13.456;2023-11-18T03:56:19;101853.94;;;3.55;100.00
25759;BME280;13604;52.496;13.456;2023-11-18T03:58:45;101872.38;;;3.60;100.00
25759;BME280;13604;52.496;13.456;2023-11-18T04:01:26;101866.06;;;3.56;100.00
25759;BME280;13604;52.496;13.456;2023-11-18T04:03:54;101876.91;;;3.62;100.00
25759;BME280;13604;52.496;13.456;2023-11-18T04:06:21;101862.44;;;3.54;100.00
25759;BME280;13604;52.496;13.456;2023-11-18T04:08:47;101862.75;;;3.48;100.00
25759;BME280;13604;52.496;13.456;2023-11-18T04:11:13;101836.34;;;3.41;100.00
25759;BME280;13604;52.496;13.456;2023-11-18T04:13:42;101861.13;;;3.49;100.00
25759;BME280;13604;52.496;13.456;2023-11-18T04:16:15;101881.44;;;3.65;100.00
25759;BME280;13604;52.496;13.456;2023-11-18T04:18:41;101884.00;;;3.65;100.00
25759;BME280;13604;52.496;13.456;2023-11-18T04:21:08;101855.69;;;3.46;100.00
25759;BME280;13604;52.496;13.456;2023-11-18T04:23:37;101888.56;;;3.67;100.00
25759;BME280;13604;52.496;13.456;2023-11-18T04:26:04;101865.91;;;3.55;100.00
25759;BME280;13604;52.496;13.456;2023-11-18T04:28:29;101893.97;;;3.71;100.00
25759;BME280;13604;52.496;13.456;2023-11-18T04:30:55;101892.03;;;3.68;100.00
25759;BME280;13604;52.496;13.456;2023-11-18T04:33:21;101884.72;;;3.54;100.00
25759;BME280;13604;52.496;13.456;2023-11-18T04:35:46;101898.28;;;3.61;100.00
25759;BME280;13604;52.496;13.456;2023-11-18T04:38:12;101898.56;;;3.64;100.00
25759;BME280;13604;52.496;13.456;2023-11-18T04:40:37;101897.53;;;3.62;100.00
25759;BME280;13604;52.496;13.456;2023-11-18T04:43:04;101905.97;;;3.70;100.00
25759;BME280;13604;52.496;13.456;2023-11-18T04:45:30;101913.19;;;3.74;100.00
25759;BME280;13604;52.496;13.456;2023-11-18T04:47:55;101893.34;;;3.54;100.00
25759;BME280;13604;52.496;13.456;2023-11-18T04:50:21;101888.06;;;3.53;100.00
25759;BME280;13604;52.496;13.456;2023-11-18T04:52:46;101907.19;;;3.65;100.00
25759;BME280;13604;52.496;13.456;2023-11-18T04:55:11;101881.88;;;3.50;100.00
25759;BME280;13604;52.496;13.456;2023-11-18T04:57:38;101914.66;;;3.62;100.00
25759;BME280;13604;52.496;13.456;2023-11-18T05:00:04;101915.88;;;3.57;100.00
25759;BME280;13604;52.496;13.456;2023-11-18T05:02:36;101908.72;;;3.44;100.00
25759;BME280;13604;52.496;13.456;2023-11-18T05:05:02;101912.66;;;3.40;100.00
25759;BME280;13604;52.496;13.456;2023-11-18T05:07:27;101896.66;;;3.34;100.00
25759;BME280;13604;52.496;13.456;2023-11-18T05:09:53;101916.47;;;3.44;100.00
25759;BME280;13604;52.496;13.456;2023-11-18T05:12:19;101914.56;;;3.52;100.00
25759;BME280;13604;52.496;13.456;2023-11-18T05:14:44;101910.66;;;3.46;100.00
25759;BME280;13604;52.496;13.456;2023-11-18T05:17:10;101919.25;;;3.56;100.00
25759;BME280;13604;52.496;13.456;2023-11-18T05:19:35;101888.16;;;3.35;100.00
25759;BME280;13604;52.496;13.456;2023-11-18T05:22:01;101906.41;;;3.47;100.00
25759;BME280;13604;52.496;13.456;2023-11-18T05:24:26;101922.94;;;3.49;100.00
25759;BME280;13604;52.496;13.456;2023-11-18T05:26:52;101917.44;;;3.55;100.00
25759;BME280;13604;52.496;13.456;2023-11-18T05:29:17;101924.25;;;3.54;100.00
25759;BME280;13604;52.496;13.456;2023-11-18T05:31:43;101904.47;;;3.44;100.00
25759;BME280;13604;52.496;13.456;2023-11-18T05:34:08;101896.97;;;3.37;100.00
25759;BME280;13604;52.496;13.456;2023-11-18T05:36:34;101909.28;;;3.50;100.00
25759;BME280;13604;52.496;13.456;2023-11-18T05:39:03;101898.13;;;3.41;100.00
25759;BME280;13604;52.496;13.456;2023-11-18T05:41:29;101920.78;;;3.54;100.00
25759;BME280;13604;52.496;13.456;2023-11-18T05:43:55;101916.25;;;3.51;100.00
25759;BME280;13604;52.496;13.456;2023-11-18T05:46:24;101908.53;;;3.51;100.00
25759;BME280;13604;52.496;13.456;2023-11-18T05:48:51;101910.47;;;3.54;100.00
25759;BME280;13604;52.496;13.456;2023-11-18T05:51:22;101925.59;;;3.59;100.00
25759;BME280;13604;52.496;13.456;2023-11-18T05:53:48;101909.56;;;3.53;100.00
25759;BME280;13604;52.496;13.456;2023-11-18T05:56:13;101903.97;;;3.48;100.00
25759;BME280;13604;52.496;13.456;2023-11-18T05:58:39;101921.31;;;3.60;100.00
25759;BME280;13604;52.496;13.456;2023-11-18T06:01:04;101918.47;;;3.57;100.00
25759;BME280;13604;52.496;13.456;2023-11-18T06:03:30;101929.72;;;3.48;100.00
25759;BME280;13604;52.496;13.456;2023-11-18T06:05:55;101922.16;;;3.50;100.00
25759;BME280;13604;52.496;13.456;2023-11-18T06:08:21;101926.47;;;3.41;100.00
25759;BME280;13604;52.496;13.456;2023-11-18T06:10:48;101907.66;;;3.14;100.00
25759;BME280;13604;52.496;13.456;2023-11-18T06:13:14;101908.31;;;3.11;100.00
25759;BME280;13604;52.496;13.456;2023-11-18T06:15:41;101909.25;;;3.03;100.00
25759;BME280;13604;52.496;13.456;2023-11-18T06:18:08;101930.09;;;3.15;100.00
25759;BME280;13604;52.496;13.456;2023-11-18T06:20:34;101929.34;;;3.16;100.00
25759;BME280;13604;52.496;13.456;2023-11-18T06:23:00;101909.53;;;3.06;100.00
25759;BME280;13604;52.496;13.456;2023-11-18T06:25:25;101923.44;;;3.08;100.00
25759;BME280;13604;52.496;13.456;2023-11-18T06:27:51;101926.81;;;2.99;100.00
25759;BME280;13604;52.496;13.456;2023-11-18T06:30:18;101933.16;;;3.02;100.00
25759;BME280;13604;52.496;13.456;2023-11-18T06:32:45;101937.88;;;2.98;100.00
25759;BME280;13604;52.496;13.456;2023-11-18T06:35:10;101913.38;;;2.92;100.00
25759;BME280;13604;52.496;13.456;2023-11-18T06:37:36;101939.50;;;3.06;100.00
25759;BME280;13604;52.496;13.456;2023-11-18T06:40:02;101926.72;;;2.88;100.00
25759;BME280;13604;52.496;13.456;2023-11-18T06:42:31;101935.03;;;2.94;100.00
25759;BME280;13604;52.496;13.456;2023-11-18T06:44:56;101956.81;;;2.98;100.00
25759;BME280;13604;52.496;13.456;2023-11-18T06:47:22;101919.22;;;2.72;100.00
25759;BME280;13604;52.496;13.456;2023-11-18T06:49:48;101955.94;;;2.89;100.00
25759;BME280;13604;52.496;13.456;2023-11-18T06:52:13;101935.53;;;2.82;100.00
25759;BME280;13604;52.496;13.456;2023-11-18T06:54:41;101952.56;;;2.99;100.00
25759;BME280;13604;52.496;13.456;2023-11-18T06:57:07;101970.69;;;3.09;100.00
25759;BME280;13604;52.496;13.456;2023-11-18T06:59:32;101976.22;;;3.22;100.00
25759;BME280;13604;52.496;13.456;2023-11-18T07:01:58;101958.19;;;3.22;100.00
25759;BME280;13604;52.496;13.456;2023-11-18T07:04:23;101951.06;;;3.28;100.00
25759;BME280;13604;52.496;13.456;2023-11-18T07:06:49;101977.19;;;3.42;100.00
25759;BME280;13604;52.496;13.456;2023-11-18T07:09:14;101951.50;;;3.33;100.00
25759;BME280;13604;52.496;13.456;2023-11-18T07:11:46;101966.13;;;3.43;100.00
25759;BME280;13604;52.496;13.456;2023-11-18T07:14:12;101952.81;;;3.38;100.00
25759;BME280;13604;52.496;13.456;2023-11-18T07:16:38;101964.94;;;3.39;100.00
25759;BME280;13604;52.496;13.456;2023-11-18T07:19:04;101977.78;;;3.48;100.00
25759;BME280;13604;52.496;13.456;2023-11-18T07:21:30;101975.84;;;3.45;100.00
25759;BME280;13604;52.496;13.456;2023-11-18T07:23:55;101979.91;;;3.43;100.00
25759;BME280;13604;52.496;13.456;2023-11-18T07:26:21;101971.75;;;3.39;100.00
25759;BME280;13604;52.496;13.456;2023-11-18T07:28:47;101961.78;;;3.33;100.00
25759;BME280;13604;52.496;13.456;2023-11-18T07:31:12;101990.34;;;3.45;100.00
25759;BME280;13604;52.496;13.456;2023-11-18T07:33:37;101994.56;;;3.53;100.00
25759;BME280;13604;52.496;13.456;2023-11-18T07:36:03;101938.47;;;3.31;100.00
25759;BME280;13604;52.496;13.456;2023-11-18T07:38:36;102004.72;;;3.79;100.00
25759;BME280;13604;52.496;13.456;2023-11-18T07:41:01;102023.75;;;3.90;100.00
25759;BME280;13604;52.496;13.456;2023-11-18T07:43:27;102015.19;;;4.00;100.00
25759;BME280;13604;52.496;13.456;2023-11-18T07:45:53;102020.88;;;4.06;100.00
25759;BME280;13604;52.496;13.456;2023-11-18T07:48:19;102000.28;;;3.87;100.00
25759;BME280;13604;52.496;13.456;2023-11-18T07:50:46;102014.88;;;3.78;100.00
25759;BME280;13604;52.496;13.456;2023-11-18T07:53:12;102030.00;;;3.83;100.00
25759;BME280;13604;52.496;13.456;2023-11-18T07:55:37;102024.22;;;3.86;100.00
25759;BME280;13604;52.496;13.456;2023-11-18T07:58:07;102014.94;;;3.88;100.00
25759;BME280;13604;52.496;13.456;2023-11-18T08:00:39;102002.22;;;3.90;100.00
25759;BME280;13604;52.496;13.456;2023-11-18T08:03:08;102025.09;;;3.95;100.00
25759;BME280;13604;52.496;13.456;2023-11-18T08:05:41;102029.75;;;3.99;100.00
25759;BME280;13604;52.496;13.456;2023-11-18T08:08:07;102027.28;;;3.82;100.00
25759;BME280;13604;52.496;13.456;2023-11-18T08:10:33;102031.66;;;3.83;100.00
25759;BME280;13604;52.496;13.456;2023-11-18T08:13:02;102007.06;;;3.67;100.00
25759;BME280;13604;52.496;13.456;2023-11-18T08:15:28;102015.81;;;3.78;100.00
25759;BME280;13604;52.496;13.456;2023-11-18T08:17:54;102038.72;;;3.94;100.00
25759;BME280;13604;52.496;13.456;2023-11-18T08:20:20;102044.59;;;4.02;100.00
25759;BME280;13604;52.496;13.456;2023-11-18T08:22:49;102031.00;;;3.94;100.00
25759;BME280;13604;52.496;13.456;2023-11-18T08:25:15;102030.84;;;3.93;100.00
25759;BME280;13604;52.496;13.456;2023-11-18T08:27:43;102043.13;;;4.14;100.00
25759;BME280;13604;52.496;13.456;2023-11-18T08:30:09;102011.56;;;4.17;100.00
25759;BME280;13604;52.496;13.456;2023-11-18T08:32:38;102021.91;;;4.36;100.00
25759;BME280;13604;52.496;13.456;2023-11-18T08:35:07;102050.03;;;4.62;100.00
25759;BME280;13604;52.496;13.456;2023-11-18T08:37:34;102041.28;;;4.70;100.00
25759;BME280;13604;52.496;13.456;2023-11-18T08:40:03;102041.97;;;4.97;100.00
25759;BME280;13604;52.496;13.456;2023-11-18T08:42:30;102041.44;;;5.01;100.00
25759;BME280;13604;52.496;13.456;2023-11-18T08:44:57;102041.22;;;5.08;100.00
25759;BME280;13604;52.496;13.456;2023-11-18T08:47:24;102033.66;;;5.20;100.00
25759;BME280;13604;52.496;13.456;2023-11-18T08:49:49;102032.91;;;5.31;100.00
25759;BME280;13604;52.496;13.456;2023-11-18T08:52:14;102014.00;;;5.12;100.00
25759;BME280;13604;52.496;13.456;2023-11-18T08:54:43;102010.75;;;5.14;100.00
25759;BME280;13604;52.496;13.456;2023-11-18T08:57:28;102019.63;;;5.47;100.00
25759;BME280;13604;52.496;13.456;2023-11-18T09:00:14;102034.78;;;5.74;100.00
25759;BME280;13604;52.496;13.456;2023-11-18T09:03:01;102035.22;;;5.99;100.00
25759;BME280;13604;52.496;13.456;2023-11-18T09:05:26;102016.81;;;5.96;100.00
25759;BME280;13604;52.496;13.456;2023-11-18T09:07:54;102036.34;;;5.92;100.00
25759;BME280;13604;52.496;13.456;2023-11-18T09:10:22;102046.66;;;5.82;100.00
25759;BME280;13604;52.496;13.456;2023-11-18T09:12:48;102036.94;;;5.69;100.00
25759;BME280;13604;52.496;13.456;2023-11-18T09:15:13;102052.09;;;5.64;100.00
25759;BME280;13604;52.496;13.456;2023-11-18T09:17:47;102064.47;;;5.48;100.00
25759;BME280;13604;52.496;13.456;2023-11-18T09:20:14;102070.25;;;5.45;100.00
25759;BME280;13604;52.496;13.456;2023-11-18T09:22:43;102056.53;;;5.36;100.00
25759;BME280;13604;52.496;13.456;2023-11-18T09:25:09;102067.41;;;5.42;100.00
25759;BME280;13604;52.496;13.456;2023-11-18T09:27:35;102061.22;;;5.40;100.00
25759;BME280;13604;52.496;13.456;2023-11-18T09:30:01;102050.31;;;5.24;100.00
25759;BME280;13604;52.496;13.456;2023-11-18T09:32:27;102075.28;;;5.33;100.00
25759;BME280;13604;52.496;13.456;2023-11-18T09:34:52;102065.22;;;5.37;100.00
25759;BME280;13604;52.496;13.456;2023-11-18T09:37:18;102052.16;;;5.35;100.00
25759;BME280;13604;52.496;13.456;2023-11-18T09:39:43;102046.44;;;5.29;100.00
25759;BME280;13604;52.496;13.456;2023-11-18T09:42:12;102058.75;;;5.31;100.00
25759;BME280;13604;52.496;13.456;2023-11-18T09:44:39;102040.25;;;5.27;100.00
25759;BME280;13604;52.496;13.456;2023-11-18T09:47:08;102061.34;;;5.42;100.00
25759;BME280;13604;52.496;13.456;2023-11-18T09:49:40;102053.44;;;5.30;100.00
25759;BME280;13604;52.496;13.456;2023-11-18T09:52:15;102057.16;;;5.23;100.00
25759;BME280;13604;52.496;13.456;2023-11-18T09:54:50;102066.34;;;5.30;100.00
25759;BME280;13604;52.496;13.456;2023-11-18T10:00:07;102067.13;;;5.29;100.00
25759;BME280;13604;52.496;13.456;2023-11-18T10:02:44;102079.28;;;5.30;100.00
25759;BME280;13604;52.496;13.456;2023-11-18T10:05:11;102070.00;;;5.13;100.00
25759;BME280;13604;52.496;13.456;2023-11-18T10:07:41;102072.31;;;5.39;100.00
25759;BME280;13604;52.496;13.456;2023-11-18T10:10:07;102081.75;;;5.49;100.00
25759;BME280;13604;52.496;13.456;2023-11-18T10:12:41;102072.25;;;5.68;100.00
25759;BME280;13604;52.496;13.456;2023-11-18T10:15:08;102067.88;;;5.78;100.00
25759;BME280;13604;52.496;13.456;2023-11-18T10:17:40;102059.22;;;5.87;99.94
25759;BME280;13604;52.496;13.456;2023-11-18T10:20:21;102050.47;;;6.06;100.00
25759;BME280;13604;52.496;13.456;2023-11-18T10:23:05;102053.03;;;6.37;99.07
25759;BME280;13604;52.496;13.456;2023-11-18T10:25:30;102062.44;;;6.57;98.33
25759;BME280;13604;52.496;13.456;2023-11-18T10:27:56;102039.28;;;6.58;93.66
25759;BME280;13604;52.496;13.456;2023-11-18T10:30:22;102032.88;;;6.75;93.96
25759;BME280;13604;52.496;13.456;2023-11-18T10:32:58;102050.00;;;7.06;93.10
25759;BME280;13604;52.496;13.456;2023-11-18T10:35:34;102046.91;;;6.99;89.92
25759;BME280;13604;52.496;13.456;2023-11-18T10:38:02;102055.88;;;6.93;90.48
25759;BME280;13604;52.496;13.456;2023-11-18T10:40:31;102044.19;;;6.98;90.49
25759;BME280;13604;52.496;13.456;2023-11-18T10:43:00;102035.41;;;7.18;89.88
25759;BME280;13604;52.496;13.456;2023-11-18T10:45:26;102040.25;;;7.35;88.86
25759;BME280;13604;52.496;13.456;2023-11-18T10:47:52;102047.34;;;7.38;85.45
25759;BME280;13604;52.496;13.456;2023-11-18T10:50:21;102037.59;;;7.24;86.16
25759;BME280;13604;52.496;13.456;2023-11-18T10:52:47;102035.53;;;7.19;85.90
25759;BME280;13604;52.496;13.456;2023-11-18T10:55:13;102060.38;;;7.28;86.54
25759;BME280;13604;52.496;13.456;2023-11-18T10:57:44;102059.72;;;6.98;86.98
25759;BME280;13604;52.496;13.456;2023-11-18T11:00:10;102044.44;;;6.58;88.79
25759;BME280;13604;52.496;13.456;2023-11-18T11:02:39;102047.72;;;6.35;91.37
25759;BME280;13604;52.496;13.456;2023-11-18T11:05:10;102063.38;;;6.16;92.62
25759;BME280;13604;52.496;13.456;2023-11-18T11:07:42;102046.03;;;5.95;95.58
25759;BME280;13604;52.496;13.456;2023-11-18T11:10:08;102044.22;;;5.73;97.62
25759;BME280;13604;52.496;13.456;2023-11-18T11:12:43;102064.53;;;5.89;98.28
25759;BME280;13604;52.496;13.456;2023-11-18T11:15:18;102058.81;;;5.93;97.88
25759;BME280;13604;52.496;13.456;2023-11-18T11:17:52;102074.41;;;6.14;97.92
25759;BME280;13604;52.496;13.456;2023-11-18T11:20:21;102075.28;;;6.35;96.44
25759;BME280;13604;52.496;13.456;2023-11-18T11:22:56;102064.13;;;6.46;96.06
25759;BME280;13604;52.496;13.456;2023-11-18T11:25:37;102074.13;;;6.41;94.56
25759;BME280;13604;52.496;13.456;2023-11-18T11:28:11;102065.84;;;6.35;95.51
25759;BME280;13604;52.496;13.456;2023-11-18T11:30:45;102046.59;;;6.32;94.71
25759;BME280;13604;52.496;13.456;2023-11-18T11:35:43;102036.34;;;6.23;93.27
25759;BME280;13604;52.496;13.456;2023-11-18T11:38:12;102045.69;;;6.11;94.86
25759;BME280;13604;52.496;13.456;2023-11-18T11:40:39;102045.00;;;5.93;96.18
25759;BME280;13604;52.496;13.456;2023-11-18T11:43:08;102047.84;;;5.96;96.11
25759;BME280;13604;52.496;13.456;2023-11-18T11:45:38;102061.16;;;5.80;96.89
25759;BME280;13604;52.496;13.456;2023-11-18T11:48:06;102052.84;;;5.63;98.48
25759;BME280;13604;52.496;13.456;2023-11-18T11:53:43;102041.41;;;6.01;100.00
25759;BME280;13604;52.496;13.456;2023-11-18T11:56:11;102035.44;;;6.22;98.49
25759;BME280;13604;52.496;13.456;2023-11-18T11:58:42;102023.91;;;6.50;96.28
25759;BME280;13604;52.496;13.456;2023-11-18T12:01:35;102019.19;;;6.98;92.85
25759;BME280;13604;52.496;13.456;2023-11-18T12:04:09;102006.78;;;6.62;90.80
25759;BME280;13604;52.496;13.456;2023-11-18T12:06:45;102016.09;;;6.60;92.64
25759;BME280;13604;52.496;13.456;2023-11-18T12:09:13;102018.66;;;6.70;92.45
25759;BME280;13604;52.496;13.456;2023-11-18T12:11:44;102001.56;;;6.72;90.48
25759;BME280;13604;52.496;13.456;2023-11-18T12:14:14;102016.53;;;7.75;89.44
25759;BME280;13604;52.496;13.456;2023-11-18T12:19:53;102006.75;;;8.64;78.08
25759;BME280;13604;52.496;13.456;2023-11-18T12:22:25;102004.47;;;8.45;78.46
25759;BME280;13604;52.496;13.456;2023-11-18T12:30:37;101991.38;;;8.79;79.28
25759;BME280;13604;52.496;13.456;2023-11-18T12:35:54;101984.00;;;11.18;61.35
25759;BME280;13604;52.496;13.456;2023-11-18T12:38:59;101974.56;;;9.86;63.97
25759;BME280;13604;52.496;13.456;2023-11-18T12:41:35;101971.66;;;8.45;69.55
25759;BME280;13604;52.496;13.456;2023-11-18T12:46:48;101943.75;;;8.55;69.00
25759;BME280;13604;52.496;13.456;2023-11-18T12:49:19;101962.47;;;9.23;67.73
25759;BME280;13604;52.496;13.456;2023-11-18T12:51:52;101969.25;;;9.85;62.41
25759;BME280;13604;52.496;13.456;2023-11-18T12:54:19;101973.19;;;9.28;63.49
25759;BME280;13604;52.496;13.456;2023-11-18T12:56:45;101956.03;;;9.43;65.63
25759;BME280;13604;52.496;13.456;2023-11-18T12:59:16;101975.41;;;12.66;57.92
25759;BME280;13604;52.496;13.456;2023-11-18T13:04:23;101961.69;;;15.30;nan
25759;BME280;13604;52.496;13.456;2023-11-18T13:58:34;101945.22;;;12.88;nan
25759;BME280;13604;52.496;13.456;2023-11-18T14:02:34;101942.63;;;10.67;50.76
25759;BME280;13604;52.496;13.456;2023-11-18T14:05:01;101935.34;;;9.45;55.58
25759;BME280;13604;52.496;13.456;2023-11-18T14:07:27;101935.38;;;8.00;62.86